Terminal Aerodrome Forecast
Issued by NWS

Home | Current Version | Previous Version | Text Only | Print | Product List | Glossary On
Versions: 1 2 3 4 5 6 7 8 9 10 11 12 13
000
FTUS44 KLZK 221700
TAFLIT
TAF
KLIT 221732Z 2218/2318 VRB03KT P6SM SCT030
     FM230000 16003KT P6SM SCT250
     FM230600 00000KT 4SM BR SKC
     FM231200 29005KT P6SM SCT050 BKN150=

USA.gov is the U.S. government's official web portal to all federal, state and local government web resources and services.